Elton, Wisconsin
Current Conditions -  °F | °C
As of 2:15 AM on Tuesday 27 Jan 2015 (Local Time) from KAIG Reporting Station
Haze Haze  
Wind Chill: 14°   Ceiling: 500
Heat Index: 20°   Visibility: 5mi
Dew Point: 19°   Wind: 5mph
Humidity: 96%   Direction: 100°E
Pressure: 29.97"   Gusts: NA
Location:  45.17°N, 88.89°W
Report Text: KAIG 270815Z AUTO 10004KT 5SM BR OVC005 M06/M07 A2997 RMK AO2 T10651070
Loading
Personal Weather Stations






























Interactive Weather Map New forecast layout! Learn more

10-Day Weather Forecast

Advertisements
Track Severe Weather on mobile